Leupp, Arizona
Current Conditions -  °F | °C
As of 9:56 AM on Wednesday 26 Nov 2014 (Local Time) from KINW Reporting Station
Clear Clear  
Wind Chill: 41°   Ceiling: Unl
Heat Index: 41°   Visibility: 10mi
Dew Point:   Wind: 3mph
Humidity: 21%   Direction: 70°ENE
Pressure: 30.48"   Gusts: NA
Location:  35.3°N, 111°W
Report Text: KINW 261656Z AUTO 07003KT 10SM CLR 05/M16 A3048 RMK AO2 SLP331 T00501156
Loading
Personal Weather Stations






























Interactive Weather Map New forecast layout! Learn more

10-Day Weather Forecast

Advertisements
Track Severe Weather on mobile